Ir direto para menu de acessibilidade.
Página inicial > Dados Estação Meteorológica
Início do conteúdo da página

Dados Estação Meteorológica

Publicado: Sexta, 24 de Agosto de 2018, 14h18 | Última atualização em Terça, 09 de Outubro de 2018, 15h16 | Acessos: 108
TEMPO EM MATÃO
 
Dados meteorológicos observados na Estação Automática localizado no IFSP-Campus Matão.
 
Coordenadas Geográficas: -21.624934, -48.347770
 
Os dados discponíveis neste site são dados brutos.
 
As observações na Estação Meteorológica não consideram o Horário de Verão.
 
Recomenda-se a citação da fonte em publicações nos quais os dados forem utilizados.
 
Fonte:
Série de Dados Meteorológicos do Campus Matão, SP
Instituto Federal de Educação, Ciência e Tecnologia de São Paulo (IFSP) - Câmpus Matão
 
Estação Meteorológica
Rua Stéfano D´avassi, 625 - Matão/SP - CEP 15991-502
Tel.: (16) 3506-0700 - e-mail: jmgberaldo@ifsp.edu.br
 
Projeto de Extensão: Mudanças climáticas e os impactos ambientais na sociedade
Edital 092/2018 MTO
 
Mês Setembro 2018
  Pressão* Temperatura     Velocidade Direção Vento Radiação
Data   Máxima Mínima Umidade* Chuva Vento* Predominante Solar
  hPa °C °C % mm m/s   W/m2
01/09/2018 1010.6 34 20 41 0.0 1.0 NNE 34944
02/09/2018 1009.5 35 21 47 0.0 1.7 NNE 31014
03/09/2018 1012.6 21 13 88 0.8 1.0 WSW 9291
04/09/2018 1015.1 22 11 78 0.2 0.8 WSW 16697
05/09/2018 1018.1 24 12 64 0.0 1.8 E 38025
06/09/2018 1017.6 29 11 55 0.0 1.7 SE 36816
07/09/2018 1015.6 33 15 48 0.0 1.2 SE 37827
08/09/2018 1014.1 33 16 44 0.0 1.1 SSE 37498
09/09/2018 1013.5 32 17 44 0.0 1.1 SSE 36788
10/09/2018 1012.9 33 15 50 0.0 1.2 SE 36424
11/09/2018 1011.8 32 16 57 0.0 1.8 SSE 35301
12/09/2018 1011.9 33 16 57 0.0 1.8 SE 34487
13/09/2018 1009.7 34 18 56 0.0 1.6 E 34164
14/09/2018 1009.3 22 18 84 12.0 1.2 NE 5184
15/09/2018 1011.2 25 18 87 0.0 0.3 SE 14844
16/09/2018 1011.4 29 16 74 3.0 1.1 SSE 33107
17/09/2018 1011.8 21 16 91 11.6 1.0 N 7994
18/09/2018 1011.4 26 19 86 0.6 0.7 N 16907
19/09/2018 1011.5 32 19 72 0.0 0.7 NE 33137
20/09/2018 1013.5 24 17 89 22.4 2.0 NNE 11561
21/09/2018 1013.1 29 17 81 0.2 0.5 WSW 33828
22/09/2018 1011.1 32 19 60 0.0 0.9 SSE 40202
23/09/2018 1009.7 34 20 49 0.0 1.0 SSE 41126
24/09/2018 1008.9 37 22 45 0.0 1.2 SSE 40950
25/09/2018 1008.3 36 19 51 0.0 1.7 E 36719
26/09/2018 1008.4 35 22 60 2.2 1.6 NE 30381
27/09/2018 1008.5 32 22 75 0.2 1.7 S 19750
28/09/2018 1011.2 30 20 77 0.0 0.9 SE 22761
29/09/2018 1010.0 34 20 67 0.0 1.2 SE 36217
30/09/2018 1010.6 26 20 84 4.6 1.2 NNE 8422
 *Dados médios.
Mês Outubro 2018
 
Apoio: Logo GEAP IFSP
Fim do conteúdo da página